Terminal Aerodrome Forecast
Issued by NWS Pittsburgh, PA

Current Version | Previous Version | Text Only | Print | Product List | Glossary Off
Versions: 1 2 3 4 5 6 7 8 9 10 11 12 13 14 15 16 17 18 19 20 21 22 23 24 25 26 27 28 29 30

000
FTUS41 KPBZ 311400 AAA
TAFPIT
TAF AMD
KPIT 311456Z 3115/0118 23003KT P6SM BKN025
     FM311700 22010KT P6SM SCT035
     FM010800 VRB03KT 5SM BR SKC
     FM011400 13005KT P6SM BKN080=

USA.gov is the U.S. government's official web portal to all federal, state and local government web resources and services.